createdAt,value
2023-05-09T00:00:39.084Z,5.28
2023-05-09T00:03:05.793Z,7.75
2023-05-09T00:05:32.249Z,6.75
2023-05-09T00:07:58.711Z,5.05
2023-05-09T00:10:25.124Z,4.75
2023-05-09T00:12:52.139Z,8.00
2023-05-09T00:15:19.080Z,4.10
2023-05-09T00:17:45.939Z,5.93
2023-05-09T00:20:12.926Z,3.60
2023-05-09T00:22:42.687Z,6.15
2023-05-09T00:25:09.760Z,5.07
2023-05-09T00:27:36.596Z,5.80
2023-05-09T00:30:04.995Z,5.60
2023-05-09T00:32:32.813Z,5.28
2023-05-09T00:34:59.331Z,5.03
2023-05-09T00:37:26.714Z,8.50
2023-05-09T00:39:53.140Z,6.32
2023-05-09T00:42:19.611Z,4.65
2023-05-09T00:44:46.468Z,5.22
2023-05-09T00:47:12.956Z,5.68
2023-05-09T00:49:39.405Z,6.97
2023-05-09T00:52:06.273Z,5.28
2023-05-09T00:54:33.091Z,6.05
2023-05-09T00:57:00.370Z,5.65
2023-05-09T00:59:27.643Z,6.13
2023-05-09T01:01:54.111Z,7.10
2023-05-09T01:04:20.582Z,5.75
2023-05-09T01:07:06.206Z,5.75
2023-05-09T01:09:57.791Z,4.93
2023-05-09T01:12:42.543Z,4.82
2023-05-09T01:15:13.801Z,5.63
2023-05-09T01:18:01.204Z,6.22
2023-05-09T01:20:37.859Z,7.10
2023-05-09T01:23:45.210Z,5.30
2023-05-09T01:26:26.044Z,6.63
2023-05-09T01:29:19.361Z,7.60
2023-05-09T01:31:49.107Z,8.50
2023-05-09T01:34:18.027Z,7.50
2023-05-09T01:36:46.973Z,8.48
2023-05-09T01:39:13.960Z,6.53
2023-05-09T01:41:40.537Z,8.07
2023-05-09T01:44:10.643Z,5.55
2023-05-09T01:46:38.109Z,6.47
2023-05-09T01:49:07.580Z,5.30
2023-05-09T01:51:36.545Z,5.43
2023-05-09T01:54:05.156Z,6.47
2023-05-09T01:56:32.290Z,7.25
2023-05-09T01:59:00.888Z,5.63
2023-05-09T02:01:28.263Z,8.60
2023-05-09T02:03:56.098Z,8.30
2023-05-09T02:06:24.129Z,7.90
2023-05-09T02:08:51.159Z,6.85
2023-05-09T02:11:17.642Z,7.22
2023-05-09T02:13:44.131Z,6.75
2023-05-09T02:16:12.125Z,7.30
2023-05-09T02:18:38.673Z,6.18
2023-05-09T02:21:06.218Z,6.80
2023-05-09T02:23:32.643Z,9.25
2023-05-09T02:25:59.445Z,8.23
2023-05-09T02:28:27.235Z,6.30
2023-05-09T02:30:57.071Z,7.95
2023-05-09T02:33:24.128Z,4.95
2023-05-09T02:35:51.853Z,6.10
2023-05-09T02:38:19.186Z,6.68
2023-05-09T02:40:47.519Z,7.68
2023-05-09T02:43:15.344Z,9.30
2023-05-09T02:45:42.084Z,7.93
2023-05-09T02:48:09.362Z,6.80
2023-05-09T02:50:38.349Z,7.07
2023-05-09T02:53:06.109Z,7.55
2023-05-09T02:55:33.601Z,6.35
2023-05-09T02:58:12.902Z,10.50
2023-05-09T03:00:42.523Z,6.57
2023-05-09T03:03:09.265Z,7.75
2023-05-09T03:05:35.886Z,6.30
2023-05-09T03:08:02.354Z,8.38
2023-05-09T03:10:29.047Z,9.85
2023-05-09T03:12:55.764Z,8.45
2023-05-09T03:15:23.035Z,8.43
2023-05-09T03:17:49.627Z,8.95
2023-05-09T03:20:16.184Z,6.53
2023-05-09T03:22:42.606Z,8.57
2023-05-09T03:25:11.103Z,8.55
2023-05-09T03:27:38.489Z,10.40
2023-05-09T03:30:08.343Z,6.72
2023-05-09T03:32:35.077Z,8.80
2023-05-09T03:35:01.596Z,7.60
2023-05-09T03:37:28.078Z,8.02
2023-05-09T03:39:54.606Z,7.47
2023-05-09T03:42:22.223Z,7.68
2023-05-09T03:44:51.044Z,7.53
2023-05-09T03:47:21.429Z,7.38
2023-05-09T03:49:48.892Z,9.07
2023-05-09T03:52:18.429Z,7.60
2023-05-09T03:54:45.434Z,9.35
2023-05-09T03:57:11.966Z,9.02
2023-05-09T03:59:38.493Z,7.78
2023-05-09T04:02:05.023Z,7.82
2023-05-09T04:04:31.565Z,7.72
2023-05-09T04:06:58.658Z,8.35
2023-05-09T04:09:25.830Z,8.70
2023-05-09T04:11:53.190Z,7.78
2023-05-09T04:14:19.773Z,8.00
2023-05-09T04:16:46.298Z,7.43
2023-05-09T04:19:12.923Z,7.63
2023-05-09T04:21:39.374Z,8.00
2023-05-09T04:24:06.312Z,7.40
2023-05-09T04:26:40.929Z,9.98
2023-05-09T04:29:11.229Z,11.50
2023-05-09T04:31:38.107Z,9.73
2023-05-09T04:34:06.580Z,8.55
2023-05-09T04:36:34.848Z,6.85
2023-05-09T04:39:02.034Z,8.80
2023-05-09T04:41:29.391Z,8.38
2023-05-09T04:43:55.888Z,9.13
2023-05-09T04:46:25.980Z,8.20
2023-05-09T04:48:53.369Z,8.00
2023-05-09T04:51:20.407Z,6.45
2023-05-09T04:53:46.990Z,8.05
2023-05-09T04:56:15.136Z,9.05
2023-05-09T04:58:42.296Z,10.00
2023-05-09T05:01:10.502Z,9.18
2023-05-09T05:03:38.029Z,8.35
2023-05-09T05:06:06.503Z,8.05
2023-05-09T05:08:33.655Z,7.90
2023-05-09T05:11:00.516Z,8.10
2023-05-09T05:13:27.944Z,8.73
2023-05-09T05:15:58.733Z,9.65
2023-05-09T05:18:25.220Z,8.55
2023-05-09T05:20:51.779Z,8.95
2023-05-09T05:23:18.435Z,8.35
2023-05-09T05:25:45.467Z,7.38
2023-05-09T05:28:13.324Z,7.60
2023-05-09T05:30:41.574Z,9.55
2023-05-09T05:33:08.070Z,7.82
2023-05-09T05:35:34.633Z,8.85
2023-05-09T05:38:01.455Z,7.72
2023-05-09T05:40:28.173Z,8.40
2023-05-09T05:42:56.047Z,7.78
2023-05-09T05:45:23.716Z,7.97
2023-05-09T05:47:54.401Z,8.48
2023-05-09T05:50:22.614Z,9.38
2023-05-09T05:52:49.220Z,8.38
2023-05-09T05:55:18.004Z,9.73
2023-05-09T05:57:44.759Z,8.48
2023-05-09T06:00:15.145Z,7.30
2023-05-09T06:02:49.387Z,10.18
2023-05-09T06:05:30.914Z,7.75
2023-05-09T06:07:57.560Z,9.63
2023-05-09T06:10:24.017Z,8.82
2023-05-09T06:12:50.521Z,9.68
2023-05-09T06:15:17.838Z,7.65
2023-05-09T06:17:46.973Z,12.80
2023-05-09T06:20:13.408Z,10.38
2023-05-09T06:22:39.852Z,9.70
2023-05-09T06:25:08.665Z,9.63
2023-05-09T06:27:36.689Z,9.88
2023-05-09T06:30:14.164Z,7.95
2023-05-09T06:32:49.690Z,9.43
2023-05-09T06:35:16.325Z,9.75
2023-05-09T06:37:43.309Z,9.38
2023-05-09T06:40:09.995Z,10.25
2023-05-09T06:42:36.440Z,10.95
2023-05-09T06:45:03.275Z,7.60
2023-05-09T06:47:29.766Z,10.88
2023-05-09T06:49:56.201Z,9.43
2023-05-09T06:52:22.728Z,8.02
2023-05-09T06:54:49.130Z,12.38
2023-05-09T06:57:15.867Z,7.80
2023-05-09T06:59:42.304Z,7.80
2023-05-09T07:02:08.726Z,10.45
2023-05-09T07:04:35.247Z,10.43
2023-05-09T07:07:01.778Z,10.68
2023-05-09T07:09:28.739Z,7.60
2023-05-09T07:11:55.573Z,8.55
2023-05-09T07:14:22.316Z,9.63
2023-05-09T07:16:48.780Z,8.35
2023-05-09T07:19:15.358Z,7.88
2023-05-09T07:21:41.774Z,9.38
2023-05-09T07:24:08.269Z,10.32
2023-05-09T07:26:37.731Z,7.00
2023-05-09T07:29:04.191Z,9.40
2023-05-09T07:31:31.002Z,12.80
2023-05-09T07:33:57.594Z,7.82
2023-05-09T07:36:24.013Z,9.43
2023-05-09T07:38:52.648Z,7.45
2023-05-09T07:41:19.424Z,7.80
2023-05-09T07:43:45.894Z,9.80
2023-05-09T07:46:12.459Z,8.18
2023-05-09T07:48:39.152Z,7.90
2023-05-09T07:51:05.702Z,6.97
2023-05-09T07:53:32.166Z,8.15
2023-05-09T07:55:58.959Z,10.05
2023-05-09T07:58:25.666Z,7.10
2023-05-09T08:00:52.063Z,8.77
2023-05-09T08:03:20.737Z,7.95
2023-05-09T08:05:47.296Z,8.48
2023-05-09T08:08:13.737Z,8.23
2023-05-09T08:10:40.167Z,9.48
2023-05-09T08:13:06.620Z,7.03
2023-05-09T08:15:33.153Z,8.60
2023-05-09T08:17:59.732Z,7.93
2023-05-09T08:20:26.262Z,8.95
2023-05-09T08:22:52.693Z,8.93
2023-05-09T08:25:20.722Z,6.85
2023-05-09T08:27:47.203Z,7.68
2023-05-09T08:30:14.213Z,7.28
2023-05-09T08:32:41.241Z,7.55
2023-05-09T08:35:08.973Z,9.90
2023-05-09T08:37:38.530Z,9.52
2023-05-09T08:40:08.571Z,8.13
2023-05-09T08:42:37.486Z,9.80
2023-05-09T08:45:11.366Z,6.22
2023-05-09T08:47:38.718Z,8.05
2023-05-09T08:50:06.395Z,6.70
2023-05-09T08:52:33.877Z,6.75
2023-05-09T08:55:07.296Z,7.35
2023-05-09T08:57:37.134Z,9.63
2023-05-09T09:00:07.612Z,6.53
2023-05-09T09:02:35.447Z,8.82
2023-05-09T09:05:02.917Z,7.57
2023-05-09T09:07:31.248Z,6.65
2023-05-09T09:09:58.722Z,7.63
2023-05-09T09:12:26.120Z,7.85
2023-05-09T09:14:55.115Z,7.97
2023-05-09T09:17:28.031Z,5.88
2023-05-09T09:19:58.992Z,7.28
2023-05-09T09:22:33.844Z,6.45
2023-05-09T09:25:01.635Z,7.50
2023-05-09T09:27:28.356Z,9.13
2023-05-09T09:29:54.869Z,7.72
2023-05-09T09:32:32.927Z,9.20
2023-05-09T09:35:10.730Z,6.78
2023-05-09T09:37:43.544Z,6.55
2023-05-09T09:40:11.699Z,8.05
2023-05-09T09:42:43.543Z,5.85
2023-05-09T09:45:15.275Z,7.18
2023-05-09T09:47:44.531Z,10.20
2023-05-09T09:50:15.906Z,6.03
2023-05-09T09:52:50.419Z,6.72
2023-05-09T09:55:21.190Z,5.43
2023-05-09T09:57:48.311Z,12.75
2023-05-09T10:00:17.570Z,6.40
2023-05-09T10:02:53.404Z,7.38
2023-05-09T10:05:28.040Z,6.88
2023-05-09T10:08:03.024Z,6.15
2023-05-09T10:10:31.670Z,6.68
2023-05-09T10:13:00.198Z,8.73
2023-05-09T10:15:33.475Z,5.72
2023-05-09T10:18:08.035Z,7.13
2023-05-09T10:20:35.772Z,9.82
2023-05-09T10:23:03.894Z,10.05
2023-05-09T10:25:46.695Z,7.30
2023-05-09T10:28:17.739Z,5.53
2023-05-09T10:30:56.635Z,9.00
2023-05-09T10:33:30.879Z,10.88
2023-05-09T10:38:25.419Z,6.20
2023-05-09T10:40:54.239Z,7.90
2023-05-09T10:43:21.736Z,7.07
2023-05-09T10:45:48.578Z,7.03
2023-05-09T10:48:15.604Z,5.35
2023-05-09T10:50:43.526Z,5.28
2023-05-09T10:53:21.609Z,10.10
2023-05-09T10:55:59.968Z,5.40
2023-05-09T10:58:33.659Z,6.03
2023-05-09T11:01:01.551Z,8.57
2023-05-09T11:03:49.363Z,5.38
2023-05-09T11:06:53.995Z,8.57
2023-05-09T11:09:39.096Z,5.40
2023-05-09T11:12:05.748Z,11.13
2023-05-09T11:14:46.790Z,9.15
2023-05-09T11:17:15.620Z,12.63
2023-05-09T11:19:44.968Z,8.73
2023-05-09T11:22:14.685Z,14.88
2023-05-09T11:24:52.223Z,11.23
2023-05-09T11:27:26.922Z,57.65
2023-05-09T11:29:55.838Z,60.47
2023-05-09T11:32:28.021Z,64.50
2023-05-09T11:35:09.478Z,40.47
2023-05-09T11:37:52.865Z,31.00
2023-05-09T11:40:20.938Z,29.38
2023-05-09T11:42:50.459Z,32.33
2023-05-09T11:45:17.842Z,32.25
2023-05-09T11:47:46.101Z,29.15
2023-05-09T11:50:13.912Z,23.00
2023-05-09T11:52:40.612Z,20.55
2023-05-09T11:55:12.694Z,12.30
2023-05-09T11:57:50.876Z,11.20
2023-05-09T12:00:25.695Z,11.25
2023-05-09T12:02:53.656Z,9.82
2023-05-09T12:05:22.712Z,7.57
2023-05-09T12:07:49.580Z,7.07
2023-05-09T12:10:19.883Z,11.35
2023-05-09T12:12:49.102Z,7.30
2023-05-09T12:15:16.885Z,8.27
2023-05-09T12:17:45.107Z,8.13
2023-05-09T12:20:12.694Z,7.72
2023-05-09T12:22:43.044Z,6.15
2023-05-09T12:25:10.696Z,6.25
2023-05-09T12:27:38.699Z,9.65
2023-05-09T12:30:09.815Z,7.43
2023-05-09T12:32:37.770Z,7.85
2023-05-09T12:35:04.756Z,9.15
2023-05-09T12:37:34.510Z,6.45
2023-05-09T12:40:06.248Z,6.93
2023-05-09T12:42:34.380Z,6.32
2023-05-09T12:45:04.693Z,7.65
2023-05-09T12:47:32.055Z,8.05
2023-05-09T12:49:59.590Z,8.93
2023-05-09T12:52:33.146Z,5.38
2023-05-09T12:55:05.986Z,6.38
2023-05-09T12:57:32.399Z,6.72
2023-05-09T13:00:00.041Z,13.32
2023-05-09T13:02:30.433Z,8.27
2023-05-09T13:05:13.183Z,8.57
2023-05-09T13:07:47.149Z,5.82
2023-05-09T13:10:15.157Z,12.93
2023-05-09T13:12:45.148Z,8.35
2023-05-09T13:15:12.063Z,6.53
2023-05-09T13:17:38.718Z,13.45
2023-05-09T13:20:06.054Z,4.63
2023-05-09T13:22:33.006Z,7.78
2023-05-09T13:24:59.719Z,6.28
2023-05-09T13:27:27.806Z,6.45
2023-05-09T13:29:54.274Z,4.38
2023-05-09T13:32:20.931Z,8.80
2023-05-09T13:34:47.353Z,7.25
2023-05-09T13:37:13.796Z,7.43
2023-05-09T13:39:40.333Z,8.45
2023-05-09T13:42:07.088Z,7.18
2023-05-09T13:44:33.512Z,7.15
2023-05-09T13:47:00.283Z,4.30
2023-05-09T13:49:27.787Z,4.60
2023-05-09T13:51:55.076Z,4.32
2023-05-09T13:54:22.952Z,9.25
2023-05-09T13:56:51.152Z,7.72
2023-05-09T13:59:17.644Z,7.15
2023-05-09T14:01:44.410Z,5.75
2023-05-09T14:04:11.106Z,5.85
2023-05-09T14:06:37.617Z,8.18
2023-05-09T14:09:04.355Z,6.65
2023-05-09T14:11:31.052Z,5.50
2023-05-09T14:13:57.596Z,5.18
2023-05-09T14:16:24.054Z,4.90
2023-05-09T14:18:50.605Z,4.80
2023-05-09T14:21:17.023Z,5.15
2023-05-09T14:23:43.653Z,6.15
2023-05-09T14:26:10.155Z,5.85
2023-05-09T14:28:38.129Z,5.22
2023-05-09T14:31:04.682Z,6.30
2023-05-09T14:33:32.920Z,6.95
2023-05-09T14:36:01.139Z,4.30
2023-05-09T14:38:27.602Z,5.22
2023-05-09T14:40:54.029Z,6.78
2023-05-09T14:43:22.184Z,4.55
2023-05-09T14:45:48.577Z,7.30
2023-05-09T14:48:16.178Z,5.25
2023-05-09T14:50:43.056Z,4.45
2023-05-09T14:53:11.029Z,6.90
2023-05-09T14:55:37.523Z,10.07
2023-05-09T14:58:03.963Z,5.50
2023-05-09T15:00:30.444Z,6.65
2023-05-09T15:02:57.483Z,8.68
2023-05-09T15:05:24.111Z,9.85
2023-05-09T15:07:50.647Z,8.80
2023-05-09T15:10:17.437Z,8.65
2023-05-09T15:12:44.249Z,7.70
2023-05-09T15:15:15.254Z,6.32
2023-05-09T15:17:43.136Z,6.97
2023-05-09T15:20:10.764Z,6.57
2023-05-09T15:22:37.552Z,5.50
2023-05-09T15:25:06.218Z,9.20
2023-05-09T15:27:32.917Z,5.80
2023-05-09T15:29:59.397Z,8.02
2023-05-09T15:32:26.056Z,6.55
2023-05-09T15:34:52.568Z,4.90
2023-05-09T15:37:19.034Z,7.63
2023-05-09T15:39:46.243Z,4.32
2023-05-09T15:42:13.342Z,6.63
2023-05-09T15:44:40.728Z,8.23
2023-05-09T15:47:07.762Z,7.50
2023-05-09T15:49:34.482Z,10.35
2023-05-09T15:52:03.832Z,7.25
2023-05-09T15:54:31.748Z,5.97
2023-05-09T15:56:59.253Z,5.57
2023-05-09T15:59:26.383Z,6.93
2023-05-09T16:01:53.250Z,6.30
2023-05-09T16:04:19.965Z,7.95
2023-05-09T16:06:47.235Z,6.30
2023-05-09T16:09:13.741Z,5.30
2023-05-09T16:11:40.926Z,6.03
2023-05-09T16:14:11.959Z,7.78
2023-05-09T16:16:39.432Z,5.90
2023-05-09T16:19:06.742Z,4.05
2023-05-09T16:21:33.420Z,4.80
2023-05-09T16:24:02.915Z,7.25
2023-05-09T16:26:29.433Z,4.70
2023-05-09T16:28:55.903Z,3.28
2023-05-09T16:31:26.336Z,5.47
2023-05-09T16:33:54.041Z,6.15
2023-05-09T16:36:21.248Z,4.93
2023-05-09T16:38:47.828Z,5.50
2023-05-09T16:41:14.475Z,7.82
2023-05-09T16:43:41.441Z,5.72
2023-05-09T16:46:08.038Z,5.72
2023-05-09T16:48:34.545Z,8.00
2023-05-09T16:51:00.949Z,5.80
2023-05-09T16:53:28.254Z,4.25
2023-05-09T16:55:54.989Z,8.18
2023-05-09T16:58:21.465Z,8.02
2023-05-09T17:00:48.188Z,5.03
2023-05-09T17:03:14.774Z,5.25
2023-05-09T17:05:41.178Z,4.95
2023-05-09T17:08:07.781Z,5.50
2023-05-09T17:10:37.058Z,6.55
2023-05-09T17:13:08.422Z,4.55
2023-05-09T17:15:34.916Z,3.13
2023-05-09T17:18:01.950Z,4.57
2023-05-09T17:20:28.886Z,4.57
2023-05-09T17:22:56.343Z,4.97
2023-05-09T17:25:23.352Z,5.60
2023-05-09T17:27:49.783Z,5.15
2023-05-09T17:30:16.615Z,3.85
2023-05-09T17:32:43.364Z,5.20
2023-05-09T17:35:09.987Z,3.75
2023-05-09T17:37:36.441Z,6.65
2023-05-09T17:40:05.048Z,4.55
2023-05-09T17:42:31.560Z,6.25
2023-05-09T17:44:57.979Z,6.55
2023-05-09T17:47:24.434Z,9.38
2023-05-09T17:49:52.013Z,4.00
2023-05-09T17:52:18.538Z,3.60
2023-05-09T17:54:45.216Z,6.18
2023-05-09T17:57:11.613Z,3.63
2023-05-09T17:59:40.513Z,3.85
2023-05-09T18:02:07.913Z,7.47
2023-05-09T18:04:34.668Z,5.40
2023-05-09T18:07:01.306Z,5.57
2023-05-09T18:09:28.117Z,6.30
2023-05-09T18:11:54.604Z,6.43
2023-05-09T18:14:21.117Z,6.78
2023-05-09T18:16:47.549Z,5.55
2023-05-09T18:19:14.017Z,3.45
2023-05-09T18:21:40.461Z,7.10
2023-05-09T18:24:09.355Z,6.68
2023-05-09T18:26:35.901Z,6.13
2023-05-09T18:29:02.361Z,6.20
2023-05-09T18:31:29.415Z,4.35
2023-05-09T18:33:56.302Z,5.68
2023-05-09T18:36:23.102Z,4.82
2023-05-09T18:38:49.556Z,5.93
2023-05-09T18:41:16.921Z,5.70
2023-05-09T18:43:46.420Z,4.53
2023-05-09T18:46:21.036Z,4.97
2023-05-09T18:48:51.947Z,8.43
2023-05-09T18:51:19.714Z,3.38
2023-05-09T18:53:47.334Z,5.10
2023-05-09T18:56:14.013Z,5.43
2023-05-09T18:58:40.582Z,5.32
2023-05-09T19:01:11.183Z,4.68
2023-05-09T19:03:43.651Z,6.68
2023-05-09T19:06:12.805Z,4.78
2023-05-09T19:08:40.532Z,5.22
2023-05-09T19:11:07.212Z,3.42
2023-05-09T19:13:37.080Z,5.13
2023-05-09T19:16:08.172Z,10.40
2023-05-09T19:18:34.742Z,6.55
2023-05-09T19:21:01.584Z,8.05
2023-05-09T19:23:28.101Z,5.82
2023-05-09T19:25:55.420Z,13.10
2023-05-09T19:28:23.026Z,7.00
2023-05-09T19:30:50.157Z,5.13
2023-05-09T19:33:16.721Z,6.03
2023-05-09T19:35:43.793Z,8.00
2023-05-09T19:38:11.823Z,4.43
2023-05-09T19:40:39.079Z,6.60
2023-05-09T19:43:05.693Z,4.55
2023-05-09T19:45:32.156Z,6.47
2023-05-09T19:47:59.445Z,7.70
2023-05-09T19:50:26.385Z,6.75
2023-05-09T19:52:52.898Z,6.50
2023-05-09T19:55:19.827Z,5.47
2023-05-09T19:57:46.987Z,6.50
2023-05-09T20:00:14.238Z,5.90
2023-05-09T20:02:41.103Z,4.50
2023-05-09T20:05:08.120Z,3.70
2023-05-09T20:07:34.597Z,3.78
2023-05-09T20:10:01.088Z,5.05
2023-05-09T20:12:30.198Z,5.25
2023-05-09T20:14:57.278Z,4.28
2023-05-09T20:17:23.872Z,5.43
2023-05-09T20:19:50.700Z,5.18
2023-05-09T20:22:17.209Z,5.00
2023-05-09T20:24:43.645Z,4.70
2023-05-09T20:27:10.090Z,3.65
2023-05-09T20:29:36.560Z,4.55
2023-05-09T20:32:03.298Z,8.82
2023-05-09T20:34:29.754Z,4.70
2023-05-09T20:36:56.240Z,4.35
2023-05-09T20:39:23.406Z,5.22
2023-05-09T20:41:51.405Z,5.00
2023-05-09T20:44:18.314Z,4.38
2023-05-09T20:46:45.443Z,6.28
2023-05-09T20:49:12.404Z,5.85
2023-05-09T20:51:38.977Z,7.88
2023-05-09T20:54:05.727Z,5.75
2023-05-09T20:56:33.564Z,5.15
2023-05-09T20:59:00.991Z,5.35
2023-05-09T21:01:27.519Z,5.13
2023-05-09T21:03:54.233Z,4.55
2023-05-09T21:06:21.060Z,6.15
2023-05-09T21:08:47.471Z,5.00
2023-05-09T21:11:13.932Z,5.32
2023-05-09T21:13:40.428Z,4.50
2023-05-09T21:16:07.077Z,5.63
2023-05-09T21:18:33.479Z,4.93
2023-05-09T21:21:07.233Z,4.80
2023-05-09T21:23:34.477Z,8.45
2023-05-09T21:26:01.049Z,3.83
2023-05-09T21:28:27.641Z,6.07
2023-05-09T21:30:54.349Z,6.22
2023-05-09T21:33:21.169Z,4.40
2023-05-09T21:35:47.705Z,5.97
2023-05-09T21:38:14.270Z,5.53
2023-05-09T21:40:41.116Z,5.57
2023-05-09T21:43:07.537Z,5.50
2023-05-09T21:45:33.944Z,6.88
2023-05-09T21:48:00.751Z,4.25
2023-05-09T21:50:27.288Z,6.93
2023-05-09T21:52:56.083Z,4.88
2023-05-09T21:55:22.825Z,6.65
2023-05-09T21:57:49.326Z,3.30
2023-05-09T22:00:16.872Z,7.22
2023-05-09T22:02:43.840Z,5.97
2023-05-09T22:05:11.469Z,5.20
2023-05-09T22:07:37.969Z,6.68
2023-05-09T22:10:04.904Z,6.88
2023-05-09T22:12:31.632Z,5.07
2023-05-09T22:14:58.070Z,6.88
2023-05-09T22:17:24.670Z,7.03
2023-05-09T22:19:51.296Z,7.65
2023-05-09T22:22:17.888Z,4.80
2023-05-09T22:24:44.360Z,6.18
2023-05-09T22:27:11.317Z,5.82
2023-05-09T22:29:37.951Z,6.28
2023-05-09T22:32:07.512Z,5.20
2023-05-09T22:34:34.944Z,6.05
2023-05-09T22:37:01.350Z,5.88
2023-05-09T22:39:27.906Z,5.82
2023-05-09T22:41:54.287Z,4.47
2023-05-09T22:44:20.940Z,5.80
2023-05-09T22:46:47.325Z,5.70
2023-05-09T22:49:13.750Z,5.65
2023-05-09T22:51:40.177Z,6.00
2023-05-09T22:54:06.654Z,8.45
2023-05-09T22:56:33.170Z,8.07
2023-05-09T22:58:59.673Z,6.43
2023-05-09T23:01:27.301Z,5.72
2023-05-09T23:03:53.941Z,6.25
2023-05-09T23:06:20.334Z,7.15
2023-05-09T23:08:46.801Z,5.40
2023-05-09T23:11:13.234Z,5.93
2023-05-09T23:13:39.647Z,7.88
2023-05-09T23:16:06.452Z,8.00
2023-05-09T23:18:32.902Z,6.55
2023-05-09T23:20:59.317Z,5.30
2023-05-09T23:23:25.818Z,10.52
2023-05-09T23:25:52.243Z,6.32
2023-05-09T23:28:20.343Z,6.55
2023-05-09T23:30:46.869Z,4.97
2023-05-09T23:33:13.314Z,6.25
2023-05-09T23:35:39.762Z,5.93
2023-05-09T23:38:06.337Z,9.05
2023-05-09T23:40:32.893Z,8.45
2023-05-09T23:42:59.443Z,6.90
2023-05-09T23:45:26.042Z,6.28
2023-05-09T23:47:52.592Z,8.55
2023-05-09T23:50:19.261Z,7.15
2023-05-09T23:52:49.118Z,9.15
2023-05-09T23:55:15.623Z,6.75
2023-05-09T23:57:42.176Z,8.00
